DAL1426 KLAX-PHNL
Flight info
| Callsign | DAL1426 |
|---|---|
| Flight time | 2h 41m |
| Altitude | 32000 |
| Route | SUMMR2 DINTY DUETS R576 DIALO/N0453F340 R576 DENNS MAGGI3 |
| Aircraft | B739/M-SDE2E3FGHIRWXY/LB1 |
Departure
| Time | 2026-05-05 21:12 |
|---|---|
| Airport | Los Angeles International Airport (KLAX) |
Arrival
| Time | 2026-05-05 23:53 |
|---|---|
| Airport | Daniel K. Inouye International Airport (PHNL) |
| Time | Latitude | Longitude | Altitude | Speed | Heading |
|---|---|---|---|---|---|
| 2026-05-05 20:37 | 33.93946 | -118.40721 | 120 ft | 0 kts | 43° |
| 2026-05-05 20:59 | 33.93940 | -118.40728 | 122 ft | 4 kts | 45° |
| 2026-05-05 20:59 | 33.93923 | -118.40752 | 120 ft | 4 kts | 63° |
| 2026-05-05 20:59 | 33.93916 | -118.40782 | 124 ft | 4 kts | 94° |
| 2026-05-05 21:00 | 33.93924 | -118.40806 | 125 ft | 4 kts | 157° |
| 2026-05-05 21:00 | 33.93930 | -118.40809 | 119 ft | 0 kts | 174° |
| 2026-05-05 21:04 | 33.93927 | -118.40809 | 119 ft | 3 kts | 174° |
| 2026-05-05 21:04 | 33.93892 | -118.40788 | 124 ft | 5 kts | 142° |
| 2026-05-05 21:04 | 33.93859 | -118.40751 | 122 ft | 8 kts | 141° |
| 2026-05-05 21:04 | 33.93816 | -118.40699 | 123 ft | 10 kts | 112° |
| 2026-05-05 21:05 | 33.93813 | -118.40604 | 125 ft | 13 kts | 85° |
| 2026-05-05 21:05 | 33.93829 | -118.40488 | 123 ft | 15 kts | 79° |
| 2026-05-05 21:05 | 33.93843 | -118.40349 | 125 ft | 18 kts | 83° |
| 2026-05-05 21:05 | 33.93858 | -118.40192 | 125 ft | 19 kts | 83° |
| 2026-05-05 21:06 | 33.93875 | -118.40038 | 125 ft | 18 kts | 85° |
| 2026-05-05 21:06 | 33.93888 | -118.39888 | 125 ft | 18 kts | 84° |
| 2026-05-05 21:06 | 33.93903 | -118.39744 | 125 ft | 17 kts | 84° |
| 2026-05-05 21:06 | 33.93919 | -118.39607 | 125 ft | 16 kts | 82° |
| 2026-05-05 21:07 | 33.93933 | -118.39473 | 125 ft | 16 kts | 83° |
| 2026-05-05 21:07 | 33.93945 | -118.39345 | 123 ft | 15 kts | 82° |
| 2026-05-05 21:07 | 33.93958 | -118.39222 | 125 ft | 14 kts | 83° |
| 2026-05-05 21:07 | 33.93971 | -118.39105 | 122 ft | 14 kts | 83° |
| 2026-05-05 21:08 | 33.93981 | -118.38991 | 125 ft | 13 kts | 83° |
| 2026-05-05 21:08 | 33.93993 | -118.38881 | 125 ft | 13 kts | 84° |
| 2026-05-05 21:08 | 33.94004 | -118.38776 | 124 ft | 13 kts | 82° |
| 2026-05-05 21:08 | 33.94015 | -118.38672 | 122 ft | 12 kts | 83° |
| 2026-05-05 21:09 | 33.94025 | -118.38571 | 122 ft | 12 kts | 83° |
| 2026-05-05 21:09 | 33.94035 | -118.38472 | 123 ft | 12 kts | 82° |
| 2026-05-05 21:09 | 33.94046 | -118.38376 | 124 ft | 11 kts | 85° |
| 2026-05-05 21:09 | 33.94055 | -118.38281 | 123 ft | 11 kts | 82° |
| 2026-05-05 21:10 | 33.94064 | -118.38190 | 124 ft | 11 kts | 83° |
| 2026-05-05 21:10 | 33.94072 | -118.38100 | 124 ft | 11 kts | 83° |
| 2026-05-05 21:10 | 33.94074 | -118.38036 | 124 ft | 0 kts | 105° |
| 2026-05-05 21:10 | 33.94072 | -118.38032 | 124 ft | 1 kts | 116° |
| 2026-05-05 21:11 | 33.94066 | -118.38024 | 121 ft | 2 kts | 130° |
| 2026-05-05 21:11 | 33.94033 | -118.38003 | 122 ft | 9 kts | 165° |
| 2026-05-05 21:11 | 33.93980 | -118.38063 | 122 ft | 15 kts | 260° |
| 2026-05-05 21:11 | 33.93965 | -118.38213 | 123 ft | 26 kts | 263° |
| 2026-05-05 21:12 | 33.93912 | -118.38729 | 125 ft | 97 kts | 263° |
| 2026-05-05 21:12 | 33.93803 | -118.39777 | 124 ft | 153 kts | 262° |
| 2026-05-05 21:12 | 33.93663 | -118.41150 | 571 ft | 169 kts | 262° |
| 2026-05-05 21:12 | 33.93542 | -118.42580 | 1303 ft | 182 kts | 262° |
| 2026-05-05 21:13 | 33.93372 | -118.44100 | 2159 ft | 191 kts | 260° |
| 2026-05-05 21:13 | 33.93162 | -118.45712 | 2563 ft | 195 kts | 262° |
| 2026-05-05 21:13 | 33.93052 | -118.47409 | 2663 ft | 213 kts | 266° |
| 2026-05-05 21:13 | 33.92947 | -118.49240 | 2746 ft | 227 kts | 263° |
| 2026-05-05 21:14 | 33.92771 | -118.51208 | 2865 ft | 244 kts | 263° |
| 2026-05-05 21:14 | 33.92584 | -118.53279 | 3180 ft | 253 kts | 264° |
| 2026-05-05 21:14 | 33.92398 | -118.55424 | 3537 ft | 259 kts | 264° |
| 2026-05-05 21:14 | 33.92216 | -118.57570 | 4112 ft | 256 kts | 264° |
| 2026-05-05 21:15 | 33.92035 | -118.59725 | 4547 ft | 261 kts | 264° |
| 2026-05-05 21:15 | 33.91913 | -118.61179 | 4793 ft | 265 kts | 264° |
| 2026-05-05 21:15 | 33.91746 | -118.63395 | 5285 ft | 267 kts | 268° |
| 2026-05-05 21:15 | 33.91712 | -118.65647 | 5760 ft | 270 kts | 271° |
| 2026-05-05 21:16 | 33.91720 | -118.67914 | 6318 ft | 271 kts | 271° |
| 2026-05-05 21:16 | 33.91728 | -118.70186 | 6802 ft | 272 kts | 272° |
| 2026-05-05 21:16 | 33.91732 | -118.72479 | 7232 ft | 275 kts | 271° |
| 2026-05-05 21:16 | 33.91730 | -118.74770 | 7695 ft | 278 kts | 271° |
| 2026-05-05 21:17 | 33.91714 | -118.77105 | 8178 ft | 280 kts | 269° |
| 2026-05-05 21:17 | 33.91549 | -118.79448 | 8657 ft | 283 kts | 266° |
| 2026-05-05 21:17 | 33.91305 | -118.81813 | 9160 ft | 286 kts | 265° |
| 2026-05-05 21:17 | 33.91045 | -118.84197 | 9654 ft | 288 kts | 265° |
| 2026-05-05 21:18 | 33.90785 | -118.86601 | 10140 ft | 291 kts | 265° |
| 2026-05-05 21:18 | 33.90522 | -118.89081 | 10281 ft | 308 kts | 265° |
| 2026-05-05 21:18 | 33.90249 | -118.91706 | 10422 ft | 323 kts | 266° |
| 2026-05-05 21:18 | 33.89968 | -118.94453 | 10546 ft | 338 kts | 265° |
| 2026-05-05 21:19 | 33.89680 | -118.97287 | 10648 ft | 353 kts | 265° |
| 2026-05-05 21:19 | 33.89377 | -119.00275 | 10862 ft | 364 kts | 265° |
| 2026-05-05 21:19 | 33.89070 | -119.03309 | 11311 ft | 366 kts | 265° |
| 2026-05-05 21:19 | 33.88761 | -119.06354 | 11889 ft | 366 kts | 265° |
| 2026-05-05 21:20 | 33.88453 | -119.09399 | 12450 ft | 367 kts | 265° |
| 2026-05-05 21:20 | 33.88144 | -119.12446 | 12979 ft | 368 kts | 264° |
| 2026-05-05 21:20 | 33.87834 | -119.15516 | 13511 ft | 371 kts | 264° |
| 2026-05-05 21:20 | 33.87521 | -119.18604 | 14041 ft | 372 kts | 264° |
| 2026-05-05 21:21 | 33.87207 | -119.21704 | 14530 ft | 374 kts | 264° |
| 2026-05-05 21:21 | 33.86889 | -119.24824 | 14992 ft | 377 kts | 264° |
| 2026-05-05 21:21 | 33.86570 | -119.27977 | 15400 ft | 382 kts | 265° |
| 2026-05-05 21:21 | 33.86246 | -119.31150 | 15939 ft | 382 kts | 265° |
| 2026-05-05 21:22 | 33.85921 | -119.34319 | 16457 ft | 383 kts | 265° |
| 2026-05-05 21:22 | 33.85592 | -119.37522 | 16901 ft | 387 kts | 265° |
| 2026-05-05 21:22 | 33.85259 | -119.40750 | 17346 ft | 390 kts | 265° |
| 2026-05-05 21:22 | 33.84925 | -119.43994 | 17813 ft | 392 kts | 265° |
| 2026-05-05 21:23 | 33.84587 | -119.47256 | 18281 ft | 394 kts | 265° |
| 2026-05-05 21:23 | 33.84247 | -119.50531 | 18687 ft | 396 kts | 266° |
| 2026-05-05 21:23 | 33.83904 | -119.53831 | 19062 ft | 399 kts | 265° |
| 2026-05-05 21:23 | 33.83557 | -119.57146 | 19432 ft | 401 kts | 266° |
| 2026-05-05 21:24 | 33.83212 | -119.60453 | 19798 ft | 404 kts | 266° |
| 2026-05-05 21:24 | 33.82860 | -119.63820 | 20169 ft | 407 kts | 266° |
| 2026-05-05 21:24 | 33.82503 | -119.67215 | 20555 ft | 409 kts | 266° |
| 2026-05-05 21:24 | 33.82144 | -119.70616 | 20925 ft | 412 kts | 266° |
| 2026-05-05 21:25 | 33.81782 | -119.74047 | 21289 ft | 415 kts | 266° |
| 2026-05-05 21:25 | 33.81417 | -119.77492 | 21647 ft | 417 kts | 266° |
| 2026-05-05 21:25 | 33.81048 | -119.80964 | 22004 ft | 420 kts | 266° |
| 2026-05-05 21:25 | 33.80675 | -119.84460 | 22328 ft | 423 kts | 267° |
| 2026-05-05 21:26 | 33.80299 | -119.87979 | 22655 ft | 426 kts | 268° |
| 2026-05-05 21:26 | 33.79920 | -119.91520 | 23004 ft | 428 kts | 268° |
| 2026-05-05 21:26 | 33.79537 | -119.95079 | 23360 ft | 431 kts | 268° |
| 2026-05-05 21:26 | 33.79152 | -119.98660 | 23690 ft | 433 kts | 268° |
| 2026-05-05 21:27 | 33.78762 | -120.02266 | 23954 ft | 436 kts | 268° |
| 2026-05-05 21:27 | 33.78369 | -120.05887 | 24234 ft | 438 kts | 267° |
| 2026-05-05 21:27 | 33.77974 | -120.09529 | 24519 ft | 440 kts | 267° |
| 2026-05-05 21:27 | 33.77575 | -120.13179 | 24774 ft | 442 kts | 268° |
| 2026-05-05 21:28 | 33.77173 | -120.16868 | 24890 ft | 449 kts | 268° |
| 2026-05-05 21:28 | 33.76765 | -120.20611 | 25074 ft | 453 kts | 268° |
| 2026-05-05 21:28 | 33.76356 | -120.24330 | 25385 ft | 454 kts | 268° |
| 2026-05-05 21:28 | 33.75940 | -120.28095 | 25685 ft | 455 kts | 268° |
| 2026-05-05 21:29 | 33.75522 | -120.31876 | 25946 ft | 458 kts | 268° |
| 2026-05-05 21:29 | 33.75100 | -120.35676 | 26185 ft | 460 kts | 268° |
| 2026-05-05 21:29 | 33.74675 | -120.39500 | 26432 ft | 463 kts | 268° |
| 2026-05-05 21:29 | 33.74247 | -120.43333 | 26698 ft | 463 kts | 268° |
| 2026-05-05 21:30 | 33.73817 | -120.47174 | 26965 ft | 465 kts | 268° |
| 2026-05-05 21:30 | 33.73383 | -120.51046 | 27182 ft | 468 kts | 268° |
| 2026-05-05 21:30 | 33.72947 | -120.54926 | 27450 ft | 469 kts | 268° |
| 2026-05-05 21:30 | 33.72509 | -120.58805 | 27799 ft | 468 kts | 268° |
| 2026-05-05 21:31 | 33.72070 | -120.62678 | 28167 ft | 468 kts | 268° |
| 2026-05-05 21:31 | 33.71630 | -120.66549 | 28479 ft | 468 kts | 268° |
| 2026-05-05 21:31 | 33.71190 | -120.70417 | 28765 ft | 469 kts | 268° |
| 2026-05-05 21:31 | 33.70747 | -120.74304 | 29098 ft | 469 kts | 268° |
| 2026-05-05 21:32 | 33.70303 | -120.78181 | 29430 ft | 468 kts | 268° |
| 2026-05-05 21:32 | 33.69859 | -120.82050 | 29739 ft | 469 kts | 268° |
| 2026-05-05 21:32 | 33.69413 | -120.85930 | 30031 ft | 469 kts | 268° |
| 2026-05-05 21:32 | 33.68970 | -120.89767 | 30298 ft | 469 kts | 268° |
| 2026-05-05 21:33 | 33.68522 | -120.93641 | 30593 ft | 468 kts | 267° |
| 2026-05-05 21:33 | 33.68074 | -120.97493 | 30893 ft | 465 kts | 267° |
| 2026-05-05 21:33 | 33.67626 | -121.01326 | 31278 ft | 461 kts | 267° |
| 2026-05-05 21:33 | 33.67181 | -121.05139 | 31590 ft | 459 kts | 266° |
| 2026-05-05 21:34 | 33.66737 | -121.08935 | 31816 ft | 459 kts | 266° |
| 2026-05-05 21:34 | 33.66293 | -121.12732 | 32016 ft | 460 kts | 266° |
| 2026-05-05 21:34 | 33.65402 | -121.20310 | 32083 ft | 461 kts | 266° |
| 2026-05-05 21:35 | 33.64504 | -121.27891 | 32071 ft | 457 kts | 266° |
| 2026-05-05 21:35 | 33.63606 | -121.35431 | 32078 ft | 455 kts | 266° |
| 2026-05-05 21:36 | 33.62712 | -121.42898 | 32091 ft | 454 kts | 266° |
| 2026-05-05 21:36 | 33.61811 | -121.50400 | 32092 ft | 454 kts | 266° |
| 2026-05-05 21:37 | 33.60904 | -121.57908 | 32079 ft | 456 kts | 266° |
| 2026-05-05 21:37 | 33.59986 | -121.65472 | 32103 ft | 460 kts | 266° |
| 2026-05-05 21:38 | 33.59059 | -121.73071 | 32104 ft | 465 kts | 266° |
| 2026-05-05 21:38 | 33.58112 | -121.80772 | 32066 ft | 467 kts | 266° |
| 2026-05-05 21:39 | 33.57158 | -121.88485 | 32087 ft | 467 kts | 266° |
| 2026-05-05 21:39 | 33.56200 | -121.96198 | 32100 ft | 467 kts | 266° |
| 2026-05-05 21:40 | 33.55247 | -122.03834 | 32095 ft | 466 kts | 266° |
| 2026-05-05 21:40 | 33.54286 | -122.11495 | 32093 ft | 463 kts | 265° |
| 2026-05-05 21:41 | 33.53325 | -122.19118 | 32094 ft | 462 kts | 265° |
| 2026-05-05 21:41 | 33.52362 | -122.26722 | 32100 ft | 460 kts | 265° |
| 2026-05-05 21:42 | 33.51399 | -122.34294 | 32106 ft | 459 kts | 265° |
| 2026-05-05 21:42 | 33.50434 | -122.41840 | 32100 ft | 458 kts | 265° |
| 2026-05-05 21:43 | 33.49466 | -122.49373 | 32109 ft | 457 kts | 265° |
| 2026-05-05 21:43 | 33.48500 | -122.56852 | 32113 ft | 458 kts | 265° |
| 2026-05-05 21:44 | 33.47236 | -122.64346 | 32103 ft | 460 kts | 259° |
| 2026-05-05 21:44 | 33.45642 | -122.71785 | 32112 ft | 461 kts | 259° |
| 2026-05-05 21:45 | 33.44033 | -122.79235 | 32118 ft | 462 kts | 259° |
| 2026-05-05 21:45 | 33.42462 | -122.86694 | 32110 ft | 462 kts | 259° |
| 2026-05-05 21:46 | 33.40908 | -122.94168 | 32109 ft | 462 kts | 259° |
| 2026-05-05 21:46 | 33.39357 | -123.01624 | 32113 ft | 462 kts | 259° |
| 2026-05-05 21:47 | 33.37800 | -123.09077 | 32119 ft | 461 kts | 259° |
| 2026-05-05 21:47 | 33.36238 | -123.16527 | 32095 ft | 461 kts | 259° |
| 2026-05-05 21:48 | 33.34677 | -123.23949 | 32103 ft | 460 kts | 259° |
| 2026-05-05 21:48 | 33.33112 | -123.31361 | 32120 ft | 459 kts | 259° |
| 2026-05-05 21:49 | 33.31554 | -123.38723 | 32120 ft | 459 kts | 259° |
| 2026-05-05 21:49 | 33.29982 | -123.46123 | 32124 ft | 459 kts | 259° |
| 2026-05-05 21:50 | 33.28406 | -123.53520 | 32126 ft | 459 kts | 259° |
| 2026-05-05 21:50 | 33.26826 | -123.60913 | 32126 ft | 460 kts | 258° |
| 2026-05-05 21:51 | 33.25237 | -123.68327 | 32124 ft | 460 kts | 258° |
| 2026-05-05 21:51 | 33.22880 | -123.79278 | 32126 ft | 460 kts | 258° |
| 2026-05-05 21:52 | 33.16716 | -124.07688 | 32126 ft | 460 kts | 258° |
| 2026-05-05 21:53 | 33.12841 | -124.25374 | 32122 ft | 460 kts | 257° |
| 2026-05-05 21:53 | 33.07061 | -124.51528 | 32122 ft | 459 kts | 257° |
| 2026-05-05 21:54 | 33.01249 | -124.77450 | 32121 ft | 458 kts | 257° |
| 2026-05-05 21:54 | 32.94648 | -125.06583 | 32134 ft | 457 kts | 257° |
| 2026-05-05 21:55 | 32.87962 | -125.35746 | 32145 ft | 456 kts | 256° |
| 2026-05-05 21:55 | 32.81216 | -125.64836 | 32153 ft | 455 kts | 256° |
| 2026-05-05 21:56 | 32.74415 | -125.93827 | 32146 ft | 455 kts | 256° |
| 2026-05-05 21:56 | 32.67544 | -126.22788 | 32164 ft | 455 kts | 256° |
| 2026-05-05 21:57 | 32.63948 | -126.37814 | 32156 ft | 455 kts | 256° |
| 2026-05-05 21:57 | 32.62213 | -126.45030 | 32160 ft | 454 kts | 256° |
| 2026-05-05 21:58 | 32.60476 | -126.52236 | 32160 ft | 454 kts | 256° |
| 2026-05-05 21:58 | 32.58741 | -126.59416 | 32158 ft | 453 kts | 256° |
| 2026-05-05 21:59 | 32.57004 | -126.66585 | 32169 ft | 452 kts | 256° |
| 2026-05-05 21:59 | 32.55315 | -126.73536 | 32169 ft | 451 kts | 256° |
| 2026-05-05 22:00 | 32.53624 | -126.80482 | 32157 ft | 450 kts | 256° |
| 2026-05-05 22:00 | 32.51896 | -126.87556 | 32161 ft | 449 kts | 256° |
| 2026-05-05 22:01 | 32.50145 | -126.94709 | 32168 ft | 449 kts | 256° |
| 2026-05-05 22:01 | 32.48402 | -127.01807 | 32164 ft | 449 kts | 256° |
| 2026-05-05 22:02 | 32.46665 | -127.08861 | 32170 ft | 449 kts | 256° |
| 2026-05-05 22:02 | 32.44914 | -127.15955 | 32166 ft | 449 kts | 256° |
| 2026-05-05 22:03 | 32.43452 | -127.21863 | 32171 ft | 449 kts | 256° |
| 2026-05-05 22:03 | 32.41693 | -127.28956 | 32167 ft | 449 kts | 256° |
| 2026-05-05 22:04 | 32.39930 | -127.36044 | 32173 ft | 449 kts | 256° |
| 2026-05-05 22:04 | 32.38162 | -127.43134 | 32170 ft | 449 kts | 256° |
| 2026-05-05 22:05 | 32.36389 | -127.50224 | 32168 ft | 449 kts | 256° |
| 2026-05-05 22:05 | 32.34611 | -127.57315 | 32171 ft | 449 kts | 256° |
| 2026-05-05 22:06 | 32.32833 | -127.64392 | 32176 ft | 449 kts | 256° |
| 2026-05-05 22:06 | 32.31050 | -127.71467 | 32175 ft | 448 kts | 256° |
| 2026-05-05 22:07 | 32.29278 | -127.78477 | 32176 ft | 447 kts | 256° |
| 2026-05-05 22:07 | 32.27494 | -127.85520 | 32171 ft | 447 kts | 256° |
| 2026-05-05 22:08 | 32.25705 | -127.92566 | 32175 ft | 447 kts | 256° |
| 2026-05-05 22:08 | 32.23910 | -127.99617 | 32185 ft | 448 kts | 256° |
| 2026-05-05 22:09 | 32.22106 | -128.06682 | 32184 ft | 449 kts | 256° |
| 2026-05-05 22:09 | 32.20297 | -128.13753 | 32184 ft | 451 kts | 256° |
| 2026-05-05 22:10 | 32.18476 | -128.20849 | 32172 ft | 452 kts | 256° |
| 2026-05-05 22:10 | 32.16652 | -128.27940 | 32183 ft | 452 kts | 256° |
| 2026-05-05 22:11 | 32.14700 | -128.35505 | 32179 ft | 451 kts | 256° |
| 2026-05-05 22:11 | 32.12695 | -128.43257 | 32183 ft | 450 kts | 256° |
| 2026-05-05 22:12 | 32.10863 | -128.50320 | 32184 ft | 449 kts | 256° |
| 2026-05-05 22:12 | 32.09032 | -128.57363 | 32186 ft | 448 kts | 256° |
| 2026-05-05 22:13 | 32.07201 | -128.64385 | 32184 ft | 447 kts | 256° |
| 2026-05-05 22:13 | 32.05373 | -128.71380 | 32185 ft | 446 kts | 257° |
| 2026-05-05 22:14 | 32.03544 | -128.78363 | 32186 ft | 445 kts | 256° |
| 2026-05-05 22:14 | 32.01716 | -128.85324 | 32192 ft | 444 kts | 256° |
| 2026-05-05 22:15 | 31.99900 | -128.92224 | 32189 ft | 443 kts | 257° |
| 2026-05-05 22:15 | 31.98072 | -128.99149 | 32186 ft | 442 kts | 257° |
| 2026-05-05 22:16 | 31.96245 | -129.06054 | 32191 ft | 441 kts | 257° |
| 2026-05-05 22:16 | 31.94421 | -129.12933 | 32167 ft | 440 kts | 257° |
| 2026-05-05 22:17 | 31.92597 | -129.19794 | 32181 ft | 438 kts | 257° |
| 2026-05-05 22:17 | 31.90774 | -129.26632 | 32185 ft | 437 kts | 257° |
| 2026-05-05 22:18 | 31.88955 | -129.33443 | 32191 ft | 436 kts | 257° |
| 2026-05-05 22:18 | 31.87136 | -129.40234 | 32189 ft | 434 kts | 257° |
| 2026-05-05 22:19 | 31.85317 | -129.47009 | 32191 ft | 433 kts | 257° |
| 2026-05-05 22:19 | 31.83504 | -129.53750 | 32196 ft | 432 kts | 257° |
| 2026-05-05 22:20 | 31.81703 | -129.60427 | 32191 ft | 430 kts | 258° |
| 2026-05-05 22:20 | 31.79892 | -129.67129 | 32191 ft | 429 kts | 258° |
| 2026-05-05 22:21 | 31.78084 | -129.73801 | 32194 ft | 428 kts | 257° |
| 2026-05-05 22:21 | 31.76276 | -129.80460 | 32198 ft | 427 kts | 257° |
| 2026-05-05 22:22 | 31.74470 | -129.87099 | 32192 ft | 426 kts | 258° |
| 2026-05-05 22:22 | 31.72668 | -129.93703 | 32203 ft | 424 kts | 258° |
| 2026-05-05 22:23 | 31.70865 | -130.00296 | 32201 ft | 423 kts | 258° |
| 2026-05-05 22:23 | 31.69064 | -130.06868 | 32198 ft | 422 kts | 258° |
| 2026-05-05 22:24 | 31.67261 | -130.13432 | 32204 ft | 422 kts | 258° |
| 2026-05-05 22:24 | 31.65465 | -130.19960 | 32204 ft | 422 kts | 258° |
| 2026-05-05 22:25 | 31.63653 | -130.26527 | 32191 ft | 423 kts | 258° |
| 2026-05-05 22:25 | 31.61834 | -130.33108 | 32203 ft | 423 kts | 258° |
| 2026-05-05 22:26 | 31.60016 | -130.39668 | 32208 ft | 423 kts | 258° |
| 2026-05-05 22:26 | 31.58193 | -130.46229 | 32204 ft | 423 kts | 258° |
| 2026-05-05 22:27 | 31.56380 | -130.52742 | 32201 ft | 422 kts | 258° |
| 2026-05-05 22:27 | 31.54554 | -130.59283 | 32215 ft | 422 kts | 258° |
| 2026-05-05 22:28 | 31.52729 | -130.65809 | 32210 ft | 421 kts | 258° |
| 2026-05-05 22:28 | 31.50905 | -130.72319 | 32204 ft | 420 kts | 258° |
| 2026-05-05 22:29 | 31.49076 | -130.78833 | 32214 ft | 420 kts | 258° |
| 2026-05-05 22:29 | 31.47250 | -130.85322 | 32208 ft | 419 kts | 258° |
| 2026-05-05 22:30 | 31.45420 | -130.91809 | 32175 ft | 419 kts | 258° |
| 2026-05-05 22:30 | 31.43592 | -130.98274 | 32203 ft | 419 kts | 258° |
| 2026-05-05 22:31 | 31.41776 | -131.04688 | 32217 ft | 419 kts | 258° |
| 2026-05-05 22:31 | 31.39947 | -131.11131 | 32212 ft | 419 kts | 258° |
| 2026-05-05 22:32 | 31.38106 | -131.17601 | 32210 ft | 420 kts | 258° |
| 2026-05-05 22:32 | 31.36255 | -131.24092 | 32217 ft | 420 kts | 258° |
| 2026-05-05 22:33 | 31.34399 | -131.30589 | 32214 ft | 421 kts | 258° |
| 2026-05-05 22:33 | 31.32536 | -131.37094 | 32198 ft | 422 kts | 258° |
| 2026-05-05 22:34 | 31.30669 | -131.43599 | 32213 ft | 422 kts | 258° |
| 2026-05-05 22:34 | 31.28798 | -131.50106 | 32218 ft | 422 kts | 258° |
| 2026-05-05 22:35 | 31.26923 | -131.56613 | 32185 ft | 422 kts | 258° |
| 2026-05-05 22:35 | 31.25044 | -131.63114 | 32208 ft | 422 kts | 258° |
| 2026-05-05 22:36 | 31.23164 | -131.69609 | 32213 ft | 421 kts | 258° |
| 2026-05-05 22:36 | 31.21286 | -131.76086 | 32217 ft | 421 kts | 258° |
| 2026-05-05 22:37 | 31.19414 | -131.82526 | 32220 ft | 420 kts | 258° |
| 2026-05-05 22:37 | 31.17533 | -131.88982 | 32222 ft | 420 kts | 258° |
| 2026-05-05 22:38 | 31.15645 | -131.95451 | 32222 ft | 420 kts | 258° |
| 2026-05-05 22:38 | 31.13758 | -132.01904 | 32212 ft | 420 kts | 258° |
| 2026-05-05 22:39 | 31.11869 | -132.08354 | 32225 ft | 420 kts | 258° |
| 2026-05-05 22:39 | 31.09974 | -132.14804 | 32224 ft | 420 kts | 258° |
| 2026-05-05 22:40 | 31.08073 | -132.21257 | 32205 ft | 421 kts | 257° |
| 2026-05-05 22:40 | 31.06178 | -132.27670 | 32218 ft | 421 kts | 257° |
| 2026-05-05 22:41 | 31.04266 | -132.34134 | 32226 ft | 422 kts | 257° |
| 2026-05-05 22:41 | 31.02348 | -132.40605 | 32221 ft | 422 kts | 257° |
| 2026-05-05 22:42 | 31.00426 | -132.47076 | 32219 ft | 423 kts | 257° |
| 2026-05-05 22:42 | 30.98496 | -132.53560 | 32228 ft | 423 kts | 257° |
| 2026-05-05 22:43 | 30.96561 | -132.60050 | 32225 ft | 424 kts | 257° |
| 2026-05-05 22:43 | 30.94620 | -132.66543 | 32218 ft | 424 kts | 257° |
| 2026-05-05 22:44 | 30.92689 | -132.72991 | 32230 ft | 424 kts | 257° |
| 2026-05-05 22:44 | 30.90731 | -132.79515 | 32228 ft | 425 kts | 257° |
| 2026-05-05 22:45 | 30.87046 | -132.91758 | 32230 ft | 425 kts | 256° |
| 2026-05-05 22:45 | 30.83147 | -133.04661 | 32207 ft | 425 kts | 256° |
| 2026-05-05 22:46 | 30.79210 | -133.17637 | 32244 ft | 427 kts | 256° |
| 2026-05-05 22:46 | 30.75204 | -133.30794 | 32235 ft | 435 kts | 256° |
| 2026-05-05 22:47 | 30.71132 | -133.44093 | 32204 ft | 436 kts | 255° |
| 2026-05-05 22:47 | 30.68851 | -133.51513 | 32223 ft | 428 kts | 255° |
| 2026-05-05 22:48 | 30.66850 | -133.58019 | 32238 ft | 427 kts | 255° |
| 2026-05-05 22:48 | 30.64849 | -133.64515 | 32230 ft | 427 kts | 255° |
| 2026-05-05 22:49 | 30.62856 | -133.70971 | 32243 ft | 427 kts | 255° |
| 2026-05-05 22:49 | 30.60845 | -133.77471 | 32242 ft | 428 kts | 255° |
| 2026-05-05 22:50 | 30.58009 | -133.86612 | 32224 ft | 430 kts | 255° |
| 2026-05-05 22:50 | 30.53933 | -133.99706 | 32252 ft | 432 kts | 255° |
| 2026-05-05 22:51 | 30.50518 | -134.10635 | 32244 ft | 434 kts | 255° |
| 2026-05-05 22:51 | 30.46377 | -134.23835 | 32231 ft | 436 kts | 254° |
| 2026-05-05 22:52 | 30.42217 | -134.37046 | 32244 ft | 436 kts | 254° |
| 2026-05-05 22:52 | 30.38041 | -134.50252 | 32238 ft | 437 kts | 254° |
| 2026-05-05 22:53 | 30.33866 | -134.63401 | 32232 ft | 437 kts | 254° |
| 2026-05-05 22:53 | 30.29642 | -134.76654 | 32242 ft | 436 kts | 254° |
| 2026-05-05 22:54 | 30.25465 | -134.89707 | 32239 ft | 435 kts | 254° |
| 2026-05-05 22:54 | 30.21255 | -135.02810 | 32229 ft | 434 kts | 253° |
| 2026-05-05 22:55 | 30.17032 | -135.15901 | 32233 ft | 433 kts | 253° |
| 2026-05-05 22:55 | 30.12810 | -135.28939 | 32248 ft | 432 kts | 253° |
| 2026-05-05 22:56 | 30.08591 | -135.41918 | 32245 ft | 431 kts | 253° |
| 2026-05-05 22:56 | 30.04361 | -135.54880 | 32251 ft | 431 kts | 253° |
| 2026-05-05 22:57 | 30.00144 | -135.67753 | 32250 ft | 431 kts | 253° |
| 2026-05-05 22:57 | 29.95884 | -135.80708 | 32243 ft | 431 kts | 253° |
| 2026-05-05 22:58 | 29.91610 | -135.93652 | 32253 ft | 432 kts | 252° |
| 2026-05-05 22:58 | 29.87318 | -136.06604 | 32249 ft | 433 kts | 252° |
| 2026-05-05 22:59 | 29.83006 | -136.19568 | 32261 ft | 433 kts | 252° |
| 2026-05-05 22:59 | 29.78680 | -136.32525 | 32257 ft | 434 kts | 252° |
| 2026-05-05 23:00 | 29.72145 | -136.52002 | 32257 ft | 435 kts | 252° |
| 2026-05-05 23:00 | 29.67794 | -136.64911 | 32261 ft | 435 kts | 252° |
| 2026-05-05 23:01 | 29.63390 | -136.77928 | 32253 ft | 436 kts | 251° |
| 2026-05-05 23:01 | 29.58977 | -136.90921 | 32256 ft | 436 kts | 251° |
| 2026-05-05 23:02 | 29.54549 | -137.03910 | 32252 ft | 437 kts | 251° |
| 2026-05-05 23:02 | 29.50105 | -137.16900 | 32249 ft | 437 kts | 251° |
| 2026-05-05 23:03 | 29.45678 | -137.29790 | 32255 ft | 437 kts | 251° |
| 2026-05-05 23:03 | 29.41206 | -137.42763 | 32246 ft | 437 kts | 251° |
| 2026-05-05 23:04 | 29.36716 | -137.55743 | 32255 ft | 437 kts | 251° |
| 2026-05-05 23:04 | 29.32215 | -137.68705 | 32250 ft | 438 kts | 250° |
| 2026-05-05 23:05 | 29.27703 | -137.81650 | 32258 ft | 438 kts | 250° |
| 2026-05-05 23:05 | 29.23173 | -137.94602 | 32254 ft | 438 kts | 250° |
| 2026-05-05 23:06 | 29.18638 | -138.07520 | 32254 ft | 438 kts | 250° |
| 2026-05-05 23:06 | 29.14084 | -138.20443 | 32255 ft | 438 kts | 250° |
| 2026-05-05 23:07 | 29.09514 | -138.33369 | 32251 ft | 438 kts | 250° |
| 2026-05-05 23:07 | 29.04969 | -138.46176 | 32256 ft | 438 kts | 250° |
| 2026-05-05 23:08 | 29.00368 | -138.59096 | 32251 ft | 439 kts | 250° |
| 2026-05-05 23:08 | 28.95755 | -138.72003 | 32250 ft | 439 kts | 250° |
| 2026-05-05 23:09 | 28.91132 | -138.84892 | 32251 ft | 439 kts | 250° |
| 2026-05-05 23:09 | 28.86496 | -138.97773 | 32251 ft | 439 kts | 250° |
| 2026-05-05 23:10 | 28.81847 | -139.10644 | 32252 ft | 439 kts | 250° |
| 2026-05-05 23:10 | 28.77184 | -139.23510 | 32247 ft | 439 kts | 249° |
| 2026-05-05 23:11 | 28.72507 | -139.36370 | 32252 ft | 439 kts | 249° |
| 2026-05-05 23:11 | 28.68403 | -139.47603 | 32240 ft | 440 kts | 249° |
| 2026-05-05 23:12 | 28.63677 | -139.60453 | 32249 ft | 440 kts | 249° |
| 2026-05-05 23:12 | 28.58971 | -139.73216 | 32249 ft | 440 kts | 249° |
| 2026-05-05 23:13 | 28.54216 | -139.86070 | 32244 ft | 441 kts | 249° |
| 2026-05-05 23:13 | 28.49448 | -139.98913 | 32245 ft | 441 kts | 249° |
| 2026-05-05 23:14 | 28.40674 | -140.22580 | 32243 ft | 442 kts | 249° |
| 2026-05-05 23:14 | 28.30982 | -140.48238 | 32242 ft | 442 kts | 249° |
| 2026-05-05 23:15 | 28.21291 | -140.73888 | 32242 ft | 442 kts | 249° |
| 2026-05-05 23:15 | 28.11544 | -140.99498 | 32240 ft | 442 kts | 249° |
| 2026-05-05 23:16 | 28.01757 | -141.25042 | 32235 ft | 442 kts | 249° |
| 2026-05-05 23:16 | 27.91930 | -141.50522 | 32229 ft | 442 kts | 248° |
| 2026-05-05 23:17 | 27.82119 | -141.75793 | 32226 ft | 441 kts | 248° |
| 2026-05-05 23:17 | 27.62938 | -142.24806 | 32214 ft | 440 kts | 247° |
| 2026-05-05 23:18 | 27.42963 | -142.75092 | 32195 ft | 439 kts | 247° |
| 2026-05-05 23:18 | 27.22845 | -143.25141 | 32214 ft | 438 kts | 246° |
| 2026-05-05 23:19 | 27.02562 | -143.74972 | 32202 ft | 438 kts | 246° |
| 2026-05-05 23:19 | 26.82132 | -144.24563 | 32203 ft | 438 kts | 246° |
| 2026-05-05 23:20 | 26.61579 | -144.73864 | 32190 ft | 437 kts | 246° |
| 2026-05-05 23:20 | 26.41114 | -145.22399 | 32190 ft | 434 kts | 246° |
| 2026-05-05 23:21 | 26.20420 | -145.70846 | 32174 ft | 432 kts | 246° |
| 2026-05-05 23:21 | 26.02378 | -146.12701 | 32169 ft | 429 kts | 246° |
| 2026-05-05 23:22 | 25.98668 | -146.21255 | 32163 ft | 428 kts | 246° |
| 2026-05-05 23:22 | 25.96081 | -146.27212 | 32172 ft | 427 kts | 246° |
| 2026-05-05 23:23 | 25.93517 | -146.33113 | 32175 ft | 426 kts | 246° |
| 2026-05-05 23:23 | 25.90942 | -146.39033 | 32169 ft | 426 kts | 246° |
| 2026-05-05 23:24 | 25.88363 | -146.44955 | 32172 ft | 425 kts | 246° |
| 2026-05-05 23:24 | 25.77452 | -146.69938 | 32179 ft | 423 kts | 246° |
| 2026-05-05 23:25 | 25.56849 | -147.16691 | 32152 ft | 421 kts | 245° |
| 2026-05-05 23:25 | 25.36310 | -147.62822 | 32151 ft | 419 kts | 245° |
| 2026-05-05 23:26 | 25.15548 | -148.08958 | 32128 ft | 419 kts | 245° |
| 2026-05-05 23:26 | 24.94682 | -148.54841 | 32131 ft | 417 kts | 245° |
| 2026-05-05 23:27 | 24.73748 | -149.00430 | 32124 ft | 417 kts | 245° |
| 2026-05-05 23:27 | 24.52654 | -149.45903 | 32115 ft | 417 kts | 245° |
| 2026-05-05 23:28 | 24.31424 | -149.91231 | 32124 ft | 417 kts | 245° |
| 2026-05-05 23:28 | 24.10081 | -150.36362 | 32113 ft | 417 kts | 244° |
| 2026-05-05 23:29 | 23.88758 | -150.81025 | 32116 ft | 417 kts | 244° |
| 2026-05-05 23:29 | 23.67152 | -151.25857 | 32093 ft | 417 kts | 244° |
| 2026-05-05 23:30 | 23.49054 | -151.63096 | 32110 ft | 418 kts | 244° |
| 2026-05-05 23:30 | 23.23411 | -152.15382 | 32080 ft | 419 kts | 244° |
| 2026-05-05 23:31 | 23.02731 | -152.57140 | 32077 ft | 420 kts | 243° |
| 2026-05-05 23:31 | 22.86407 | -152.89631 | 32106 ft | 421 kts | 243° |
| 2026-05-05 23:32 | 22.64027 | -153.33857 | 32090 ft | 421 kts | 243° |
| 2026-05-05 23:32 | 22.41330 | -153.78302 | 32086 ft | 422 kts | 243° |
| 2026-05-05 23:33 | 22.36335 | -153.89915 | 32090 ft | 418 kts | 264° |
| 2026-05-05 23:33 | 22.36988 | -154.20623 | 32041 ft | 420 kts | 271° |
| 2026-05-05 23:34 | 22.37927 | -154.71100 | 32085 ft | 420 kts | 270° |
| 2026-05-05 23:34 | 22.38731 | -155.21640 | 32089 ft | 421 kts | 270° |
| 2026-05-05 23:35 | 22.39355 | -155.72367 | 32072 ft | 422 kts | 270° |
| 2026-05-05 23:35 | 22.39800 | -156.19958 | 32075 ft | 423 kts | 269° |
| 2026-05-05 23:36 | 22.39463 | -156.23063 | 32052 ft | 423 kts | 253° |
| 2026-05-05 23:36 | 22.38337 | -156.26000 | 32064 ft | 424 kts | 242° |
| 2026-05-05 23:36 | 22.31423 | -156.35173 | 32056 ft | 428 kts | 232° |
| 2026-05-05 23:37 | 22.03240 | -156.71817 | 32048 ft | 429 kts | 233° |
| 2026-05-05 23:37 | 21.87339 | -156.92321 | 32057 ft | 430 kts | 233° |
| 2026-05-05 23:38 | 21.85404 | -156.94819 | 31382 ft | 439 kts | 233° |
| 2026-05-05 23:38 | 21.83462 | -156.97320 | 31176 ft | 427 kts | 233° |
| 2026-05-05 23:38 | 21.81568 | -156.99756 | 30215 ft | 427 kts | 232° |
| 2026-05-05 23:38 | 21.79669 | -157.02204 | 29188 ft | 424 kts | 232° |
| 2026-05-05 23:39 | 21.77784 | -157.04632 | 28125 ft | 422 kts | 232° |
| 2026-05-05 23:39 | 21.75902 | -157.07057 | 27110 ft | 420 kts | 232° |
| 2026-05-05 23:39 | 21.74034 | -157.09462 | 26114 ft | 418 kts | 232° |
| 2026-05-05 23:39 | 21.72799 | -157.11053 | 25474 ft | 417 kts | 232° |
| 2026-05-05 23:40 | 21.70943 | -157.13442 | 24545 ft | 415 kts | 232° |
| 2026-05-05 23:40 | 21.69096 | -157.15818 | 23645 ft | 413 kts | 232° |
| 2026-05-05 23:40 | 21.67255 | -157.18185 | 22590 ft | 410 kts | 232° |
| 2026-05-05 23:40 | 21.65428 | -157.20533 | 21568 ft | 408 kts | 232° |
| 2026-05-05 23:41 | 21.63611 | -157.22867 | 20583 ft | 406 kts | 232° |
| 2026-05-05 23:41 | 21.61803 | -157.25189 | 19619 ft | 403 kts | 232° |
| 2026-05-05 23:41 | 21.60011 | -157.27489 | 18704 ft | 400 kts | 232° |
| 2026-05-05 23:41 | 21.58228 | -157.29777 | 17699 ft | 398 kts | 231° |
| 2026-05-05 23:42 | 21.56458 | -157.32047 | 16677 ft | 395 kts | 231° |
| 2026-05-05 23:42 | 21.54700 | -157.34300 | 15692 ft | 393 kts | 231° |
| 2026-05-05 23:42 | 21.52974 | -157.36513 | 14749 ft | 390 kts | 231° |
| 2026-05-05 23:42 | 21.51239 | -157.38735 | 13818 ft | 387 kts | 231° |
| 2026-05-05 23:43 | 21.49514 | -157.40944 | 12819 ft | 385 kts | 230° |
| 2026-05-05 23:43 | 21.47827 | -157.43105 | 12479 ft | 365 kts | 230° |
| 2026-05-05 23:43 | 21.46248 | -157.45124 | 12332 ft | 342 kts | 230° |
| 2026-05-05 23:43 | 21.44761 | -157.47027 | 12204 ft | 322 kts | 230° |
| 2026-05-05 23:44 | 21.43357 | -157.48822 | 12085 ft | 305 kts | 230° |
| 2026-05-05 23:44 | 21.42027 | -157.50521 | 11890 ft | 291 kts | 230° |
| 2026-05-05 23:44 | 21.40741 | -157.52164 | 11522 ft | 285 kts | 230° |
| 2026-05-05 23:44 | 21.39471 | -157.53784 | 11137 ft | 282 kts | 230° |
| 2026-05-05 23:45 | 21.38216 | -157.55387 | 10725 ft | 278 kts | 230° |
| 2026-05-05 23:45 | 21.36991 | -157.56950 | 10376 ft | 272 kts | 230° |
| 2026-05-05 23:45 | 21.35782 | -157.58492 | 9973 ft | 270 kts | 230° |
| 2026-05-05 23:45 | 21.34572 | -157.60034 | 9491 ft | 270 kts | 230° |
| 2026-05-05 23:46 | 21.33364 | -157.61574 | 9072 ft | 267 kts | 230° |
| 2026-05-05 23:46 | 21.32170 | -157.63095 | 8607 ft | 266 kts | 230° |
| 2026-05-05 23:46 | 21.30987 | -157.64601 | 8156 ft | 267 kts | 230° |
| 2026-05-05 23:46 | 21.29806 | -157.66104 | 7823 ft | 261 kts | 230° |
| 2026-05-05 23:47 | 21.28630 | -157.67600 | 7158 ft | 268 kts | 230° |
| 2026-05-05 23:47 | 21.27400 | -157.69165 | 6344 ft | 279 kts | 232° |
| 2026-05-05 23:47 | 21.26508 | -157.70979 | 5977 ft | 269 kts | 255° |
| 2026-05-05 23:47 | 21.26186 | -157.72927 | 5659 ft | 261 kts | 264° |
| 2026-05-05 23:48 | 21.26029 | -157.74829 | 5364 ft | 253 kts | 265° |
| 2026-05-05 23:48 | 21.25899 | -157.76666 | 5072 ft | 245 kts | 266° |
| 2026-05-05 23:48 | 21.25768 | -157.78463 | 4773 ft | 239 kts | 265° |
| 2026-05-05 23:48 | 21.25632 | -157.80223 | 4478 ft | 235 kts | 265° |
| 2026-05-05 23:49 | 21.25494 | -157.81960 | 4220 ft | 234 kts | 265° |
| 2026-05-05 23:49 | 21.25349 | -157.83720 | 3955 ft | 241 kts | 265° |
| 2026-05-05 23:49 | 21.25197 | -157.85542 | 3666 ft | 247 kts | 265° |
| 2026-05-05 23:49 | 21.25044 | -157.87353 | 3427 ft | 238 kts | 265° |
| 2026-05-05 23:50 | 21.24897 | -157.89071 | 3272 ft | 226 kts | 265° |
| 2026-05-05 23:50 | 21.24757 | -157.90700 | 3164 ft | 215 kts | 265° |
| 2026-05-05 23:50 | 21.24620 | -157.92286 | 3072 ft | 215 kts | 265° |
| 2026-05-05 23:50 | 21.24481 | -157.93894 | 2903 ft | 217 kts | 264° |
| 2026-05-05 23:51 | 21.24345 | -157.95453 | 2661 ft | 205 kts | 264° |
| 2026-05-05 23:51 | 21.24236 | -157.96914 | 2408 ft | 193 kts | 271° |
| 2026-05-05 23:51 | 21.24734 | -157.98202 | 2111 ft | 189 kts | 320° |
| 2026-05-05 23:51 | 21.25960 | -157.98681 | 1629 ft | 206 kts | 1° |
| 2026-05-05 23:52 | 21.27242 | -157.98128 | 1410 ft | 194 kts | 29° |
| 2026-05-05 23:52 | 21.28385 | -157.97270 | 1011 ft | 202 kts | 39° |
| 2026-05-05 23:52 | 21.29293 | -157.96155 | 807 ft | 194 kts | 64° |
| 2026-05-05 23:52 | 21.29900 | -157.94858 | 593 ft | 195 kts | 59° |
| 2026-05-05 23:53 | 21.30748 | -157.93705 | 323 ft | 196 kts | 57° |
| 2026-05-05 23:53 | 21.31525 | -157.92526 | 50 ft | 184 kts | 51° |
| 2026-05-05 23:53 | 21.32210 | -157.91566 | 7 ft | 120 kts | 49° |
| 2026-05-05 23:53 | 21.32443 | -157.91234 | 7 ft | 24 kts | 57° |
| 2026-05-05 23:54 | 21.32539 | -157.91096 | 9 ft | 23 kts | 51° |